sensor_id;sensor_type;location;lat;lon;timestamp;pressure;altitude;pressure_sealevel;temperature
15079;BMP180;6932;51.438;5.470;2023-01-01T00:01:15;100479.00;;;20.50
15079;BMP180;6932;51.438;5.470;2023-01-01T00:03:41;100489.00;;;20.50
15079;BMP180;6932;51.438;5.470;2023-01-01T00:06:10;100460.00;;;20.50
15079;BMP180;6932;51.438;5.470;2023-01-01T00:08:38;100490.00;;;20.50
15079;BMP180;6932;51.438;5.470;2023-01-01T00:11:06;100499.00;;;20.50
15079;BMP180;6932;51.438;5.470;2023-01-01T00:13:33;100496.00;;;20.60
15079;BMP180;6932;51.438;5.470;2023-01-01T00:16:11;100492.00;;;20.60
15079;BMP180;6932;51.438;5.470;2023-01-01T00:18:38;100501.00;;;20.60
15079;BMP180;6932;51.438;5.470;2023-01-01T00:21:13;100494.00;;;20.60
15079;BMP180;6932;51.438;5.470;2023-01-01T00:23:39;100515.00;;;20.60
15079;BMP180;6932;51.438;5.470;2023-01-01T00:26:14;100522.00;;;20.60
15079;BMP180;6932;51.438;5.470;2023-01-01T00:28:41;100521.00;;;20.60
15079;BMP180;6932;51.438;5.470;2023-01-01T00:31:14;100519.00;;;20.60
15079;BMP180;6932;51.438;5.470;2023-01-01T00:33:43;100518.00;;;20.60
15079;BMP180;6932;51.438;5.470;2023-01-01T00:36:14;100511.00;;;20.60
15079;BMP180;6932;51.438;5.470;2023-01-01T00:38:41;100507.00;;;20.60
15079;BMP180;6932;51.438;5.470;2023-01-01T00:41:08;100515.00;;;20.60
15079;BMP180;6932;51.438;5.470;2023-01-01T00:43:34;100501.00;;;20.50
15079;BMP180;6932;51.438;5.470;2023-01-01T00:46:00;100514.00;;;20.50
15079;BMP180;6932;51.438;5.470;2023-01-01T00:48:26;100506.00;;;20.50
15079;BMP180;6932;51.438;5.470;2023-01-01T00:50:53;100502.00;;;20.50
15079;BMP180;6932;51.438;5.470;2023-01-01T00:53:20;100489.00;;;20.50
15079;BMP180;6932;51.438;5.470;2023-01-01T00:55:49;100495.00;;;20.50
15079;BMP180;6932;51.438;5.470;2023-01-01T00:58:16;100496.00;;;20.50
15079;BMP180;6932;51.438;5.470;2023-01-01T01:00:43;100504.00;;;20.50
15079;BMP180;6932;51.438;5.470;2023-01-01T01:03:14;100501.00;;;20.50
15079;BMP180;6932;51.438;5.470;2023-01-01T01:06:15;100515.00;;;20.50
15079;BMP180;6932;51.438;5.470;2023-01-01T01:08:44;100527.00;;;20.50
15079;BMP180;6932;51.438;5.470;2023-01-01T01:11:17;100500.00;;;20.50
15079;BMP180;6932;51.438;5.470;2023-01-01T01:13:46;100506.00;;;20.50
15079;BMP180;6932;51.438;5.470;2023-01-01T01:16:28;100518.00;;;20.50
15079;BMP180;6932;51.438;5.470;2023-01-01T01:18:58;100523.00;;;20.40
15079;BMP180;6932;51.438;5.470;2023-01-01T01:21:27;100515.00;;;20.40
15079;BMP180;6932;51.438;5.470;2023-01-01T01:23:57;100526.00;;;20.40
15079;BMP180;6932;51.438;5.470;2023-01-01T01:26:30;100506.00;;;20.40
15079;BMP180;6932;51.438;5.470;2023-01-01T01:28:57;100511.00;;;20.40
15079;BMP180;6932;51.438;5.470;2023-01-01T01:31:28;100531.00;;;20.40
15079;BMP180;6932;51.438;5.470;2023-01-01T01:33:55;100522.00;;;20.40
15079;BMP180;6932;51.438;5.470;2023-01-01T01:36:22;100521.00;;;20.40
15079;BMP180;6932;51.438;5.470;2023-01-01T01:38:48;100522.00;;;20.30
15079;BMP180;6932;51.438;5.470;2023-01-01T01:41:17;100521.00;;;20.30
15079;BMP180;6932;51.438;5.470;2023-01-01T01:44:02;100514.00;;;20.30
15079;BMP180;6932;51.438;5.470;2023-01-01T01:46:39;100537.00;;;20.30
15079;BMP180;6932;51.438;5.470;2023-01-01T01:49:16;100554.00;;;20.20
15079;BMP180;6932;51.438;5.470;2023-01-01T01:51:45;100567.00;;;20.20
15079;BMP180;6932;51.438;5.470;2023-01-01T01:54:17;100556.00;;;20.20
15079;BMP180;6932;51.438;5.470;2023-01-01T01:59:15;100542.00;;;20.20
15079;BMP180;6932;51.438;5.470;2023-01-01T02:01:41;100569.00;;;20.20
15079;BMP180;6932;51.438;5.470;2023-01-01T02:04:08;100546.00;;;20.10
15079;BMP180;6932;51.438;5.470;2023-01-01T02:06:34;100567.00;;;20.10
15079;BMP180;6932;51.438;5.470;2023-01-01T02:09:05;100567.00;;;20.10
15079;BMP180;6932;51.438;5.470;2023-01-01T02:11:31;100564.00;;;20.10
15079;BMP180;6932;51.438;5.470;2023-01-01T02:13:57;100564.00;;;20.10
15079;BMP180;6932;51.438;5.470;2023-01-01T02:16:43;100590.00;;;20.10
15079;BMP180;6932;51.438;5.470;2023-01-01T02:31:15;100582.00;;;20.00
15079;BMP180;6932;51.438;5.470;2023-01-01T02:33:44;100598.00;;;20.00
15079;BMP180;6932;51.438;5.470;2023-01-01T02:36:12;100571.00;;;20.00
15079;BMP180;6932;51.438;5.470;2023-01-01T02:38:45;100581.00;;;20.00
15079;BMP180;6932;51.438;5.470;2023-01-01T02:41:30;100566.00;;;20.00
15079;BMP180;6932;51.438;5.470;2023-01-01T02:43:57;100574.00;;;20.00
15079;BMP180;6932;51.438;5.470;2023-01-01T02:46:31;100574.00;;;20.00
15079;BMP180;6932;51.438;5.470;2023-01-01T02:48:58;100572.00;;;20.00
15079;BMP180;6932;51.438;5.470;2023-01-01T02:54:20;100568.00;;;20.00
15079;BMP180;6932;51.438;5.470;2023-01-01T02:56:57;100589.00;;;19.90
15079;BMP180;6932;51.438;5.470;2023-01-01T03:06:36;100603.00;;;19.90
15079;BMP180;6932;51.438;5.470;2023-01-01T03:11:49;100606.00;;;19.90
15079;BMP180;6932;51.438;5.470;2023-01-01T03:19:53;100603.00;;;19.80
15079;BMP180;6932;51.438;5.470;2023-01-01T03:22:29;100614.00;;;19.90
15079;BMP180;6932;51.438;5.470;2023-01-01T03:25:11;100614.00;;;19.90
15079;BMP180;6932;51.438;5.470;2023-01-01T03:27:48;100613.00;;;19.80
15079;BMP180;6932;51.438;5.470;2023-01-01T03:30:17;100624.00;;;19.80
15079;BMP180;6932;51.438;5.470;2023-01-01T03:32:59;100619.00;;;19.80
15079;BMP180;6932;51.438;5.470;2023-01-01T03:35:50;100613.00;;;19.80
15079;BMP180;6932;51.438;5.470;2023-01-01T03:38:24;100623.00;;;19.80
15079;BMP180;6932;51.438;5.470;2023-01-01T03:41:02;100628.00;;;19.80
15079;BMP180;6932;51.438;5.470;2023-01-01T03:43:44;100613.00;;;19.80
15079;BMP180;6932;51.438;5.470;2023-01-01T03:46:20;100630.00;;;19.80
15079;BMP180;6932;51.438;5.470;2023-01-01T03:48:48;100631.00;;;19.80
15079;BMP180;6932;51.438;5.470;2023-01-01T03:54:52;100655.00;;;19.70
15079;BMP180;6932;51.438;5.470;2023-01-01T04:00:39;100639.00;;;19.70
15079;BMP180;6932;51.438;5.470;2023-01-01T04:03:31;100623.00;;;19.70
15079;BMP180;6932;51.438;5.470;2023-01-01T04:06:01;100638.00;;;19.70
15079;BMP180;6932;51.438;5.470;2023-01-01T04:08:27;100661.00;;;19.70
15079;BMP180;6932;51.438;5.470;2023-01-01T04:10:59;100652.00;;;19.70
15079;BMP180;6932;51.438;5.470;2023-01-01T04:13:47;100648.00;;;19.70
15079;BMP180;6932;51.438;5.470;2023-01-01T04:16:13;100658.00;;;19.70
15079;BMP180;6932;51.438;5.470;2023-01-01T04:18:38;100664.00;;;19.70
15079;BMP180;6932;51.438;5.470;2023-01-01T04:21:04;100643.00;;;19.70
15079;BMP180;6932;51.438;5.470;2023-01-01T04:23:30;100653.00;;;19.70
15079;BMP180;6932;51.438;5.470;2023-01-01T04:25:56;100662.00;;;19.70
15079;BMP180;6932;51.438;5.470;2023-01-01T04:28:21;100627.00;;;19.70
15079;BMP180;6932;51.438;5.470;2023-01-01T04:30:47;100644.00;;;19.70
15079;BMP180;6932;51.438;5.470;2023-01-01T04:33:13;100637.00;;;19.70
15079;BMP180;6932;51.438;5.470;2023-01-01T04:35:38;100646.00;;;19.70
15079;BMP180;6932;51.438;5.470;2023-01-01T04:38:04;100652.00;;;19.60
15079;BMP180;6932;51.438;5.470;2023-01-01T04:40:31;100657.00;;;19.60
15079;BMP180;6932;51.438;5.470;2023-01-01T04:42:56;100658.00;;;19.60
15079;BMP180;6932;51.438;5.470;2023-01-01T04:45:22;100661.00;;;19.60
15079;BMP180;6932;51.438;5.470;2023-01-01T04:47:48;100676.00;;;19.60
15079;BMP180;6932;51.438;5.470;2023-01-01T04:50:13;100675.00;;;19.60
15079;BMP180;6932;51.438;5.470;2023-01-01T04:52:39;100672.00;;;19.50
15079;BMP180;6932;51.438;5.470;2023-01-01T04:55:05;100688.00;;;19.50
15079;BMP180;6932;51.438;5.470;2023-01-01T04:57:31;100684.00;;;19.50
15079;BMP180;6932;51.438;5.470;2023-01-01T04:59:57;100662.00;;;19.50
15079;BMP180;6932;51.438;5.470;2023-01-01T05:02:23;100672.00;;;19.50
15079;BMP180;6932;51.438;5.470;2023-01-01T05:04:49;100677.00;;;19.50
15079;BMP180;6932;51.438;5.470;2023-01-01T05:07:14;100696.00;;;19.50
15079;BMP180;6932;51.438;5.470;2023-01-01T05:09:40;100693.00;;;19.50
15079;BMP180;6932;51.438;5.470;2023-01-01T05:12:06;100701.00;;;19.50
15079;BMP180;6932;51.438;5.470;2023-01-01T05:14:32;100712.00;;;19.40
15079;BMP180;6932;51.438;5.470;2023-01-01T05:16:58;100706.00;;;19.40
15079;BMP180;6932;51.438;5.470;2023-01-01T05:19:24;100712.00;;;19.40
15079;BMP180;6932;51.438;5.470;2023-01-01T05:21:49;100722.00;;;19.40
15079;BMP180;6932;51.438;5.470;2023-01-01T05:24:15;100721.00;;;19.40
15079;BMP180;6932;51.438;5.470;2023-01-01T05:26:43;100729.00;;;19.40
15079;BMP180;6932;51.438;5.470;2023-01-01T05:29:10;100734.00;;;19.40
15079;BMP180;6932;51.438;5.470;2023-01-01T05:31:36;100762.00;;;19.40
15079;BMP180;6932;51.438;5.470;2023-01-01T05:34:04;100751.00;;;19.40
15079;BMP180;6932;51.438;5.470;2023-01-01T05:36:34;100757.00;;;19.40
15079;BMP180;6932;51.438;5.470;2023-01-01T05:39:10;100754.00;;;19.30
15079;BMP180;6932;51.438;5.470;2023-01-01T05:41:37;100763.00;;;19.30
15079;BMP180;6932;51.438;5.470;2023-01-01T05:44:05;100775.00;;;19.30
15079;BMP180;6932;51.438;5.470;2023-01-01T05:46:32;100778.00;;;19.30
15079;BMP180;6932;51.438;5.470;2023-01-01T05:48:58;100773.00;;;19.30
15079;BMP180;6932;51.438;5.470;2023-01-01T05:51:26;100769.00;;;19.30
15079;BMP180;6932;51.438;5.470;2023-01-01T05:53:53;100785.00;;;19.30
15079;BMP180;6932;51.438;5.470;2023-01-01T05:56:20;100780.00;;;19.30
15079;BMP180;6932;51.438;5.470;2023-01-01T05:58:46;100790.00;;;19.30
15079;BMP180;6932;51.438;5.470;2023-01-01T06:01:14;100794.00;;;19.30
15079;BMP180;6932;51.438;5.470;2023-01-01T06:03:42;100797.00;;;19.30
15079;BMP180;6932;51.438;5.470;2023-01-01T06:06:12;100815.00;;;19.30
15079;BMP180;6932;51.438;5.470;2023-01-01T06:08:39;100797.00;;;19.30
15079;BMP180;6932;51.438;5.470;2023-01-01T06:11:10;100803.00;;;19.30
15079;BMP180;6932;51.438;5.470;2023-01-01T06:13:36;100797.00;;;19.30
15079;BMP180;6932;51.438;5.470;2023-01-01T06:16:03;100807.00;;;19.30
15079;BMP180;6932;51.438;5.470;2023-01-01T06:18:33;100807.00;;;19.30
15079;BMP180;6932;51.438;5.470;2023-01-01T06:21:07;100809.00;;;19.20
15079;BMP180;6932;51.438;5.470;2023-01-01T06:23:33;100805.00;;;19.20
15079;BMP180;6932;51.438;5.470;2023-01-01T06:26:17;100812.00;;;19.20
15079;BMP180;6932;51.438;5.470;2023-01-01T06:28:44;100820.00;;;19.20
15079;BMP180;6932;51.438;5.470;2023-01-01T06:31:12;100829.00;;;19.20
15079;BMP180;6932;51.438;5.470;2023-01-01T06:33:39;100825.00;;;19.20
15079;BMP180;6932;51.438;5.470;2023-01-01T06:36:09;100850.00;;;19.20
15079;BMP180;6932;51.438;5.470;2023-01-01T06:38:38;100855.00;;;19.20
15079;BMP180;6932;51.438;5.470;2023-01-01T06:41:09;100856.00;;;19.20
15079;BMP180;6932;51.438;5.470;2023-01-01T06:43:35;100870.00;;;19.20
15079;BMP180;6932;51.438;5.470;2023-01-01T06:46:13;100890.00;;;19.20
15079;BMP180;6932;51.438;5.470;2023-01-01T06:48:39;100892.00;;;19.10
15079;BMP180;6932;51.438;5.470;2023-01-01T06:51:11;100887.00;;;19.10
15079;BMP180;6932;51.438;5.470;2023-01-01T06:53:37;100909.00;;;19.10
15079;BMP180;6932;51.438;5.470;2023-01-01T06:56:04;100915.00;;;19.10
15079;BMP180;6932;51.438;5.470;2023-01-01T06:58:31;100924.00;;;19.00
15079;BMP180;6932;51.438;5.470;2023-01-01T07:01:23;100944.00;;;19.00
15079;BMP180;6932;51.438;5.470;2023-01-01T07:03:56;100951.00;;;18.90
15079;BMP180;6932;51.438;5.470;2023-01-01T07:06:23;100941.00;;;18.80
15079;BMP180;6932;51.438;5.470;2023-01-01T07:08:49;100937.00;;;18.70
15079;BMP180;6932;51.438;5.470;2023-01-01T07:11:15;100938.00;;;18.60
15079;BMP180;6932;51.438;5.470;2023-01-01T07:13:41;100956.00;;;18.50
15079;BMP180;6932;51.438;5.470;2023-01-01T07:16:07;100963.00;;;18.40
15079;BMP180;6932;51.438;5.470;2023-01-01T07:18:33;100972.00;;;18.30
15079;BMP180;6932;51.438;5.470;2023-01-01T07:21:02;100975.00;;;18.30
15079;BMP180;6932;51.438;5.470;2023-01-01T07:23:32;100964.00;;;18.20
15079;BMP180;6932;51.438;5.470;2023-01-01T07:25:58;100963.00;;;18.10
15079;BMP180;6932;51.438;5.470;2023-01-01T07:28:25;100969.00;;;18.00
15079;BMP180;6932;51.438;5.470;2023-01-01T07:30:51;100975.00;;;18.00
15079;BMP180;6932;51.438;5.470;2023-01-01T07:33:22;100978.00;;;17.90
15079;BMP180;6932;51.438;5.470;2023-01-01T07:35:49;100996.00;;;17.90
15079;BMP180;6932;51.438;5.470;2023-01-01T07:38:15;100990.00;;;17.80
15079;BMP180;6932;51.438;5.470;2023-01-01T07:40:41;100992.00;;;17.80
15079;BMP180;6932;51.438;5.470;2023-01-01T07:43:08;100984.00;;;17.70
15079;BMP180;6932;51.438;5.470;2023-01-01T07:45:34;100981.00;;;17.70
15079;BMP180;6932;51.438;5.470;2023-01-01T07:48:01;100979.00;;;17.70
15079;BMP180;6932;51.438;5.470;2023-01-01T07:50:30;100987.00;;;17.60
15079;BMP180;6932;51.438;5.470;2023-01-01T07:52:57;100973.00;;;17.60
15079;BMP180;6932;51.438;5.470;2023-01-01T07:55:23;100985.00;;;17.60
15079;BMP180;6932;51.438;5.470;2023-01-01T07:57:49;100985.00;;;17.60
15079;BMP180;6932;51.438;5.470;2023-01-01T08:00:19;100996.00;;;17.50
15079;BMP180;6932;51.438;5.470;2023-01-01T08:02:45;101003.00;;;17.50
15079;BMP180;6932;51.438;5.470;2023-01-01T08:05:11;101019.00;;;17.50
15079;BMP180;6932;51.438;5.470;2023-01-01T08:07:37;101028.00;;;17.50
15079;BMP180;6932;51.438;5.470;2023-01-01T08:10:05;101033.00;;;17.50
15079;BMP180;6932;51.438;5.470;2023-01-01T08:12:32;101041.00;;;17.50
15079;BMP180;6932;51.438;5.470;2023-01-01T08:14:58;101039.00;;;17.40
15079;BMP180;6932;51.438;5.470;2023-01-01T08:17:23;101062.00;;;17.40
15079;BMP180;6932;51.438;5.470;2023-01-01T08:19:49;101033.00;;;17.40
15079;BMP180;6932;51.438;5.470;2023-01-01T08:22:16;101047.00;;;17.40
15079;BMP180;6932;51.438;5.470;2023-01-01T08:24:42;101042.00;;;17.40
15079;BMP180;6932;51.438;5.470;2023-01-01T08:27:13;101042.00;;;17.40
15079;BMP180;6932;51.438;5.470;2023-01-01T08:29:39;101049.00;;;17.30
15079;BMP180;6932;51.438;5.470;2023-01-01T08:32:05;101050.00;;;17.30
15079;BMP180;6932;51.438;5.470;2023-01-01T08:34:31;101057.00;;;17.30
15079;BMP180;6932;51.438;5.470;2023-01-01T08:36:57;101064.00;;;17.30
15079;BMP180;6932;51.438;5.470;2023-01-01T08:39:24;101067.00;;;17.30
15079;BMP180;6932;51.438;5.470;2023-01-01T08:41:50;101073.00;;;17.30
15079;BMP180;6932;51.438;5.470;2023-01-01T08:44:15;101080.00;;;17.30
15079;BMP180;6932;51.438;5.470;2023-01-01T08:46:41;101101.00;;;17.30
15079;BMP180;6932;51.438;5.470;2023-01-01T08:49:07;101099.00;;;17.30
15079;BMP180;6932;51.438;5.470;2023-01-01T08:51:33;101081.00;;;17.30
15079;BMP180;6932;51.438;5.470;2023-01-01T08:53:59;101107.00;;;17.30
15079;BMP180;6932;51.438;5.470;2023-01-01T08:56:24;101084.00;;;17.30
15079;BMP180;6932;51.438;5.470;2023-01-01T08:58:50;101095.00;;;17.30
15079;BMP180;6932;51.438;5.470;2023-01-01T09:01:16;101088.00;;;17.30
15079;BMP180;6932;51.438;5.470;2023-01-01T09:03:42;101082.00;;;17.20
15079;BMP180;6932;51.438;5.470;2023-01-01T09:06:08;101091.00;;;17.20
15079;BMP180;6932;51.438;5.470;2023-01-01T09:08:34;101096.00;;;17.20
15079;BMP180;6932;51.438;5.470;2023-01-01T09:11:01;101104.00;;;17.20
15079;BMP180;6932;51.438;5.470;2023-01-01T09:13:30;101084.00;;;17.20
15079;BMP180;6932;51.438;5.470;2023-01-01T09:15:56;101095.00;;;17.20
15079;BMP180;6932;51.438;5.470;2023-01-01T09:18:23;101110.00;;;17.20
15079;BMP180;6932;51.438;5.470;2023-01-01T09:20:48;101110.00;;;17.20
15079;BMP180;6932;51.438;5.470;2023-01-01T09:23:14;101111.00;;;17.20
15079;BMP180;6932;51.438;5.470;2023-01-01T09:25:40;101101.00;;;17.20
15079;BMP180;6932;51.438;5.470;2023-01-01T09:28:10;101105.00;;;17.20
15079;BMP180;6932;51.438;5.470;2023-01-01T09:30:37;101107.00;;;17.20
15079;BMP180;6932;51.438;5.470;2023-01-01T09:33:03;101102.00;;;17.20
15079;BMP180;6932;51.438;5.470;2023-01-01T09:35:30;101107.00;;;17.20
15079;BMP180;6932;51.438;5.470;2023-01-01T09:37:57;101090.00;;;17.20
15079;BMP180;6932;51.438;5.470;2023-01-01T09:46:23;101100.00;;;17.20
15079;BMP180;6932;51.438;5.470;2023-01-01T09:49:01;101108.00;;;17.20
15079;BMP180;6932;51.438;5.470;2023-01-01T09:51:33;101092.00;;;17.20
15079;BMP180;6932;51.438;5.470;2023-01-01T09:56:58;101108.00;;;17.20
15079;BMP180;6932;51.438;5.470;2023-01-01T09:59:25;101116.00;;;17.30
15079;BMP180;6932;51.438;5.470;2023-01-01T10:02:38;101115.00;;;17.30
15079;BMP180;6932;51.438;5.470;2023-01-01T10:06:06;101105.00;;;17.30
15079;BMP180;6932;51.438;5.470;2023-01-01T10:14:33;101101.00;;;17.40
15079;BMP180;6932;51.438;5.470;2023-01-01T10:17:09;101102.00;;;17.40
15079;BMP180;6932;51.438;5.470;2023-01-01T10:22:17;101107.00;;;17.50
15079;BMP180;6932;51.438;5.470;2023-01-01T10:25:14;101110.00;;;17.60
15079;BMP180;6932;51.438;5.470;2023-01-01T10:30:22;101108.00;;;17.60
15079;BMP180;6932;51.438;5.470;2023-01-01T10:32:51;101118.00;;;17.70
15079;BMP180;6932;51.438;5.470;2023-01-01T10:35:43;101118.00;;;17.70
15079;BMP180;6932;51.438;5.470;2023-01-01T10:38:22;101112.00;;;17.80
15079;BMP180;6932;51.438;5.470;2023-01-01T10:40:50;101113.00;;;17.80
15079;BMP180;6932;51.438;5.470;2023-01-01T10:43:17;101118.00;;;17.90
15079;BMP180;6932;51.438;5.470;2023-01-01T10:45:49;101117.00;;;17.90
15079;BMP180;6932;51.438;5.470;2023-01-01T10:48:21;101116.00;;;17.90
15079;BMP180;6932;51.438;5.470;2023-01-01T10:51:06;101110.00;;;18.00
15079;BMP180;6932;51.438;5.470;2023-01-01T10:53:51;101102.00;;;18.00
15079;BMP180;6932;51.438;5.470;2023-01-01T10:56:39;101102.00;;;18.10
15079;BMP180;6932;51.438;5.470;2023-01-01T10:59:36;101092.00;;;18.20
15079;BMP180;6932;51.438;5.470;2023-01-01T11:02:26;101092.00;;;18.20
15079;BMP180;6932;51.438;5.470;2023-01-01T11:05:19;101101.00;;;18.30
15079;BMP180;6932;51.438;5.470;2023-01-01T11:07:45;101099.00;;;18.30
15079;BMP180;6932;51.438;5.470;2023-01-01T11:10:23;101107.00;;;18.40
15079;BMP180;6932;51.438;5.470;2023-01-01T11:12:50;101121.00;;;18.50
15079;BMP180;6932;51.438;5.470;2023-01-01T11:15:40;101139.00;;;18.50
15079;BMP180;6932;51.438;5.470;2023-01-01T11:18:20;101119.00;;;18.60
15079;BMP180;6932;51.438;5.470;2023-01-01T11:20:55;101118.00;;;18.60
15079;BMP180;6932;51.438;5.470;2023-01-01T11:23:37;101142.00;;;18.70
15079;BMP180;6932;51.438;5.470;2023-01-01T11:26:19;101143.00;;;18.70
15079;BMP180;6932;51.438;5.470;2023-01-01T11:29:02;101135.00;;;18.70
15079;BMP180;6932;51.438;5.470;2023-01-01T11:31:37;101132.00;;;18.80
15079;BMP180;6932;51.438;5.470;2023-01-01T11:34:31;101123.00;;;18.80
15079;BMP180;6932;51.438;5.470;2023-01-01T11:39:46;101133.00;;;18.80
15079;BMP180;6932;51.438;5.470;2023-01-01T11:42:20;101129.00;;;18.80
15079;BMP180;6932;51.438;5.470;2023-01-01T11:45:05;101113.00;;;18.80
15079;BMP180;6932;51.438;5.470;2023-01-01T11:47:38;101101.00;;;18.80
15079;BMP180;6932;51.438;5.470;2023-01-01T11:52:45;101102.00;;;18.90
15079;BMP180;6932;51.438;5.470;2023-01-01T11:55:43;101100.00;;;18.90
15079;BMP180;6932;51.438;5.470;2023-01-01T12:01:17;101116.00;;;18.90
15079;BMP180;6932;51.438;5.470;2023-01-01T12:04:27;101123.00;;;18.90
15079;BMP180;6932;51.438;5.470;2023-01-01T12:07:29;101112.00;;;18.80
15079;BMP180;6932;51.438;5.470;2023-01-01T12:10:14;101112.00;;;18.80
15079;BMP180;6932;51.438;5.470;2023-01-01T12:13:00;101123.00;;;18.80
15079;BMP180;6932;51.438;5.470;2023-01-01T12:15:40;101107.00;;;18.80
15079;BMP180;6932;51.438;5.470;2023-01-01T12:18:43;101112.00;;;18.80
15079;BMP180;6932;51.438;5.470;2023-01-01T12:21:28;101114.00;;;18.80
15079;BMP180;6932;51.438;5.470;2023-01-01T12:23:54;101116.00;;;18.80
15079;BMP180;6932;51.438;5.470;2023-01-01T12:26:39;101110.00;;;18.80
15079;BMP180;6932;51.438;5.470;2023-01-01T12:29:45;101117.00;;;18.80
15079;BMP180;6932;51.438;5.470;2023-01-01T12:50:20;101118.00;;;18.90
15079;BMP180;6932;51.438;5.470;2023-01-01T12:57:04;101112.00;;;18.80
15079;BMP180;6932;51.438;5.470;2023-01-01T12:59:35;101118.00;;;18.80
15079;BMP180;6932;51.438;5.470;2023-01-01T13:02:32;101110.00;;;18.80
15079;BMP180;6932;51.438;5.470;2023-01-01T13:05:17;101108.00;;;18.80
15079;BMP180;6932;51.438;5.470;2023-01-01T13:07:50;101109.00;;;18.80
15079;BMP180;6932;51.438;5.470;2023-01-01T13:10:45;101091.00;;;18.80
15079;BMP180;6932;51.438;5.470;2023-01-01T13:13:13;101094.00;;;18.80
15079;BMP180;6932;51.438;5.470;2023-01-01T13:43:03;101094.00;;;18.70
15079;BMP180;6932;51.438;5.470;2023-01-01T13:45:34;101090.00;;;18.70
15079;BMP180;6932;51.438;5.470;2023-01-01T13:51:44;101095.00;;;18.60
15079;BMP180;6932;51.438;5.470;2023-01-01T14:03:16;101101.00;;;18.60
15079;BMP180;6932;51.438;5.470;2023-01-01T14:05:47;101106.00;;;18.60
15079;BMP180;6932;51.438;5.470;2023-01-01T14:08:34;101112.00;;;18.60
15079;BMP180;6932;51.438;5.470;2023-01-01T14:11:16;101111.00;;;18.60
15079;BMP180;6932;51.438;5.470;2023-01-01T14:13:43;101120.00;;;18.50
15079;BMP180;6932;51.438;5.470;2023-01-01T14:16:09;101122.00;;;18.60
15079;BMP180;6932;51.438;5.470;2023-01-01T14:19:09;101127.00;;;18.60
15079;BMP180;6932;51.438;5.470;2023-01-01T14:21:38;101124.00;;;18.50
15079;BMP180;6932;51.438;5.470;2023-01-01T14:24:06;101126.00;;;18.50
15079;BMP180;6932;51.438;5.470;2023-01-01T14:26:36;101122.00;;;18.50
15079;BMP180;6932;51.438;5.470;2023-01-01T14:29:08;101118.00;;;18.50
15079;BMP180;6932;51.438;5.470;2023-01-01T14:31:45;101124.00;;;18.50
15079;BMP180;6932;51.438;5.470;2023-01-01T14:34:26;101118.00;;;18.50
15079;BMP180;6932;51.438;5.470;2023-01-01T14:37:01;101119.00;;;18.50
15079;BMP180;6932;51.438;5.470;2023-01-01T14:39:33;101110.00;;;18.50
15079;BMP180;6932;51.438;5.470;2023-01-01T14:42:15;101116.00;;;18.50
15079;BMP180;6932;51.438;5.470;2023-01-01T14:44:44;101111.00;;;18.50
15079;BMP180;6932;51.438;5.470;2023-01-01T14:47:28;101115.00;;;18.50
15079;BMP180;6932;51.438;5.470;2023-01-01T14:50:12;101112.00;;;18.40
15079;BMP180;6932;51.438;5.470;2023-01-01T14:52:41;101110.00;;;18.40
15079;BMP180;6932;51.438;5.470;2023-01-01T14:55:07;101103.00;;;18.40
15079;BMP180;6932;51.438;5.470;2023-01-01T14:57:46;101104.00;;;18.40
15079;BMP180;6932;51.438;5.470;2023-01-01T15:00:27;101110.00;;;18.40
15079;BMP180;6932;51.438;5.470;2023-01-01T15:02:53;101109.00;;;18.40
15079;BMP180;6932;51.438;5.470;2023-01-01T15:07:59;101120.00;;;18.40
15079;BMP180;6932;51.438;5.470;2023-01-01T15:10:31;101127.00;;;18.40
15079;BMP180;6932;51.438;5.470;2023-01-01T15:12:58;101128.00;;;18.40
15079;BMP180;6932;51.438;5.470;2023-01-01T15:15:35;101130.00;;;18.30
15079;BMP180;6932;51.438;5.470;2023-01-01T15:18:00;101117.00;;;18.30
15079;BMP180;6932;51.438;5.470;2023-01-01T15:20:27;101120.00;;;18.30
15079;BMP180;6932;51.438;5.470;2023-01-01T15:22:54;101111.00;;;18.30
15079;BMP180;6932;51.438;5.470;2023-01-01T15:25:20;101105.00;;;18.30
15079;BMP180;6932;51.438;5.470;2023-01-01T15:27:52;101105.00;;;18.30
15079;BMP180;6932;51.438;5.470;2023-01-01T15:30:31;101099.00;;;18.30
15079;BMP180;6932;51.438;5.470;2023-01-01T15:33:08;101103.00;;;18.30
15079;BMP180;6932;51.438;5.470;2023-01-01T15:35:39;101089.00;;;18.30
15079;BMP180;6932;51.438;5.470;2023-01-01T15:38:26;101103.00;;;18.30
15079;BMP180;6932;51.438;5.470;2023-01-01T15:40:55;101093.00;;;18.20
15079;BMP180;6932;51.438;5.470;2023-01-01T15:43:30;101102.00;;;18.20
15079;BMP180;6932;51.438;5.470;2023-01-01T15:46:16;101118.00;;;18.20
15079;BMP180;6932;51.438;5.470;2023-01-01T15:48:51;101117.00;;;18.20
15079;BMP180;6932;51.438;5.470;2023-01-01T15:51:21;101122.00;;;18.20
15079;BMP180;6932;51.438;5.470;2023-01-01T15:53:56;101117.00;;;18.20
15079;BMP180;6932;51.438;5.470;2023-01-01T15:56:26;101120.00;;;18.20
15079;BMP180;6932;51.438;5.470;2023-01-01T16:01:28;101129.00;;;18.20
15079;BMP180;6932;51.438;5.470;2023-01-01T16:04:14;101115.00;;;18.20
15079;BMP180;6932;51.438;5.470;2023-01-01T16:06:49;101123.00;;;18.10
15079;BMP180;6932;51.438;5.470;2023-01-01T16:09:17;101113.00;;;18.10
15079;BMP180;6932;51.438;5.470;2023-01-01T16:11:45;101110.00;;;18.10
15079;BMP180;6932;51.438;5.470;2023-01-01T16:14:11;101117.00;;;18.10
15079;BMP180;6932;51.438;5.470;2023-01-01T16:16:38;101112.00;;;18.10
15079;BMP180;6932;51.438;5.470;2023-01-01T16:19:15;101108.00;;;18.10
15079;BMP180;6932;51.438;5.470;2023-01-01T16:21:42;101104.00;;;18.10
15079;BMP180;6932;51.438;5.470;2023-01-01T16:24:13;101105.00;;;18.10
15079;BMP180;6932;51.438;5.470;2023-01-01T16:26:40;101093.00;;;18.10
15079;BMP180;6932;51.438;5.470;2023-01-01T16:29:07;101100.00;;;18.00
15079;BMP180;6932;51.438;5.470;2023-01-01T16:31:33;101095.00;;;18.00
15079;BMP180;6932;51.438;5.470;2023-01-01T16:33:59;101092.00;;;18.00
15079;BMP180;6932;51.438;5.470;2023-01-01T16:36:25;101096.00;;;18.00
15079;BMP180;6932;51.438;5.470;2023-01-01T16:38:52;101099.00;;;17.90
15079;BMP180;6932;51.438;5.470;2023-01-01T16:41:18;101088.00;;;17.90
15079;BMP180;6932;51.438;5.470;2023-01-01T16:43:45;101085.00;;;17.90
15079;BMP180;6932;51.438;5.470;2023-01-01T16:46:11;101088.00;;;17.90
15079;BMP180;6932;51.438;5.470;2023-01-01T16:48:38;101086.00;;;17.90
15079;BMP180;6932;51.438;5.470;2023-01-01T16:51:05;101072.00;;;17.80